Startpagina
METAR-TAF:

METAR-TAF

Vliegvelden :

Damascus, Syrië

Luchthaven Damascus

breedte: 33-25N, lengte: 036-31E, hoogte: 608 m

Actueel weer

Dit bericht is 8 minuten geleden gemaakt, om 03:00 UTC
Wind 11 kt uit het zuidzuidwesten
Temperatuur 19°C
Vochtigheid 88%
Druk 1012 hPa
Zicht 10 km of meer
geen wolken onder 1500 m en geen cumulonimbus

METAR: OSDI 240300Z 21011KT CAVOK 19/17 Q1012

Tijdstip: 06:08 (03:08 UTC)

Verwachting

Verwachting geldig van 23 om 18 UTC tot 24 om 24 UTC
Wind 10 kt uit het zuidwesten
Zicht 10 km of meer
geen wolken onder 1500 m en geen cumulonimbus
Tijdelijke
van 24 om 09 UTC tot 24 om 20 UTC
Wind 15 kt uit het westen met uitschieters tot 25 kt
Zicht 10 km of meer
Weinig wolken op 3000 ft

TAF: OSDI 2318/2424 22010KT CAVOK TEMPO 2409/2420 26015G25KT 9999 FEW030

Waarnemingen en weersverwachtingen van meer dan 4000 vliegvelden (METAR en TAF).

De beschikbare stations zijn de gele en rode punten op de kaart.

Ga met uw muis naar het station om de naam te zien.

Klik dan om waarnemingen en weersverwachtingen te zien.

kaart wijzigen: klik op de groene knoppen met een zwart kruis om in te zoomen, op de groene knop met een streepje om uit te zoomen of op de groene pijlen voor aangrenzende kaarten.


METAR-TAF: